Time;durP1;ratioP1;P1;durP2;ratioP2;P2;SDS_P1;SDS_P2;PMS_P1;PMS_P2;Temp;Humidity;BMP_temperature;BMP_pressure;BME280_temperature;BME280_humidity;BME280_pressure;Samples;Min_cycle;Max_cycle;Signal;HPM_P1;HPM_P2
2021/09/25 00:01:00;;;;;;;1.20;1.20;;;;;;;;;;4701162;30;20710;-86
2021/09/25 00:03:28;;;;;;;1.20;1.20;;;;;;;;;;4700998;30;20217;-85
2021/09/25 00:05:55;;;;;;;1.30;1.17;;;;;;;;;;4700858;30;20210;-85
2021/09/25 00:08:23;;;;;;;1.67;1.58;;;;;;;;;;4700868;30;20241;-85
2021/09/25 00:10:51;;;;;;;1.20;1.20;;;;;;;;;;4700920;30;20643;-86
2021/09/25 00:13:19;;;;;;;2.20;1.40;;;;;;;;;;4701026;30;20198;-85
2021/09/25 00:15:48;;;;;;;1.50;1.40;;;;;;;;;;4693058;30;20230;-86
2021/09/25 00:18:18;;;;;;;1.27;1.20;;;;;;;;;;4690093;30;20233;-85
2021/09/25 00:20:47;;;;;;;1.55;1.45;;;;;;;;;;4701121;30;20691;-86
2021/09/25 00:23:14;;;;;;;1.63;1.52;;;;;;;;;;4700787;30;20202;-86
2021/09/25 00:25:42;;;;;;;1.60;1.50;;;;;;;;;;4700399;30;20206;-86
2021/09/25 00:28:09;;;;;;;1.48;1.38;;;;;;;;;;4700860;30;20249;-86
2021/09/25 00:30:37;;;;;;;1.50;1.40;;;;;;;;;;4701118;30;20210;-85
2021/09/25 00:33:05;;;;;;;1.88;1.75;;;;;;;;;;4700606;30;20735;-86
2021/09/25 00:35:35;;;;;;;1.42;1.33;;;;;;;;;;4700156;30;20793;-86
2021/09/25 00:38:04;;;;;;;1.30;1.30;;;;;;;;;;4700200;30;20902;-86
2021/09/25 00:40:31;;;;;;;1.30;1.20;;;;;;;;;;4700474;30;20199;-85
2021/09/25 00:42:59;;;;;;;1.55;1.45;;;;;;;;;;4700437;30;20231;-85
2021/09/25 00:45:26;;;;;;;1.58;1.48;;;;;;;;;;4700101;30;20238;-86
2021/09/25 00:47:56;;;;;;;1.90;1.80;;;;;;;;;;4700378;30;20806;-85
2021/09/25 00:50:28;;;;;;;2.00;1.80;;;;;;;;;;4700272;30;20206;-86
2021/09/25 00:52:57;;;;;;;1.73;1.63;;;;;;;;;;4700151;30;20191;-86
2021/09/25 00:55:26;;;;;;;1.67;1.58;;;;;;;;;;4700527;30;20669;-85
2021/09/25 00:57:58;;;;;;;1.52;1.42;;;;;;;;;;4700138;30;20254;-86
2021/09/25 01:00:29;;;;;;;1.60;1.50;;;;;;;;;;4700604;30;20195;-85
2021/09/25 01:02:56;;;;;;;1.92;1.83;;;;;;;;;;4700586;30;20592;-86
2021/09/25 01:05:25;;;;;;;1.40;1.30;;;;;;;;;;4700099;30;20210;-86
2021/09/25 01:07:54;;;;;;;1.30;1.30;;;;;;;;;;4699357;30;20620;-86
2021/09/25 01:10:23;;;;;;;1.08;1.08;;;;;;;;;;4700762;30;20280;-87
2021/09/25 01:12:51;;;;;;;1.30;1.20;;;;;;;;;;4700424;30;20207;-86
2021/09/25 01:15:20;;;;;;;2.20;2.10;;;;;;;;;;4700652;30;20195;-85
2021/09/25 01:17:52;;;;;;;3.58;1.70;;;;;;;;;;4699426;30;20656;-84
2021/09/25 01:20:20;;;;;;;1.95;1.85;;;;;;;;;;4699953;30;20229;-84
2021/09/25 01:22:49;;;;;;;1.45;1.38;;;;;;;;;;4699804;30;20227;-84
2021/09/25 01:25:16;;;;;;;1.50;1.40;;;;;;;;;;4700148;30;20202;-84
2021/09/25 01:27:45;;;;;;;1.70;1.60;;;;;;;;;;4700043;30;20234;-85
2021/09/25 01:30:16;;;;;;;1.70;1.60;;;;;;;;;;4699205;30;20209;-84
2021/09/25 01:32:47;;;;;;;1.80;1.70;;;;;;;;;;4700443;30;20571;-85
2021/09/25 01:35:16;;;;;;;1.27;1.27;;;;;;;;;;4696017;30;20211;-85
2021/09/25 01:37:45;;;;;;;1.40;1.30;;;;;;;;;;4682946;30;20235;-85
2021/09/25 01:40:16;;;;;;;2.33;2.20;;;;;;;;;;4682218;30;20230;-84
2021/09/25 01:42:45;;;;;;;2.30;2.13;;;;;;;;;;4684027;30;20250;-85
2021/09/25 01:45:13;;;;;;;2.00;1.90;;;;;;;;;;4689480;30;20218;-84
2021/09/25 01:47:40;;;;;;;1.95;1.85;;;;;;;;;;4702860;30;20741;-85
2021/09/25 01:50:12;;;;;;;2.63;2.42;;;;;;;;;;4703057;30;20203;-85
2021/09/25 01:52:41;;;;;;;2.03;1.92;;;;;;;;;;4703169;30;20202;-85
2021/09/25 01:55:10;;;;;;;1.60;1.50;;;;;;;;;;4703279;30;20199;-85
2021/09/25 01:57:42;;;;;;;2.47;2.17;;;;;;;;;;4703392;30;20608;-85
2021/09/25 02:00:12;;;;;;;2.13;1.92;;;;;;;;;;4703097;30;20198;-85
2021/09/25 02:02:40;;;;;;;1.55;1.45;;;;;;;;;;4702953;30;20219;-85
2021/09/25 02:05:08;;;;;;;2.25;2.03;;;;;;;;;;4702654;30;20203;-85
2021/09/25 02:07:37;;;;;;;2.03;1.92;;;;;;;;;;4702832;30;20321;-85
2021/09/25 02:10:06;;;;;;;2.15;1.95;;;;;;;;;;4702564;30;20670;-85
2021/09/25 02:12:33;;;;;;;1.90;1.80;;;;;;;;;;4702253;30;20600;-84
2021/09/25 02:15:02;;;;;;;2.05;1.30;;;;;;;;;;4702733;30;20206;-85
2021/09/25 02:17:31;;;;;;;2.50;2.30;;;;;;;;;;4702122;30;20726;-85
2021/09/25 02:20:00;;;;;;;2.00;1.90;;;;;;;;;;4702325;30;20195;-85
2021/09/25 02:22:28;;;;;;;1.70;1.60;;;;;;;;;;4701856;30;20300;-87
2021/09/25 02:24:56;;;;;;;1.90;1.80;;;;;;;;;;4700868;30;20207;-85
2021/09/25 02:27:25;;;;;;;1.70;1.60;;;;;;;;;;4685442;30;20215;-85
2021/09/25 02:29:52;;;;;;;1.30;1.30;;;;;;;;;;4685309;30;20691;-86
2021/09/25 02:32:21;;;;;;;1.10;1.10;;;;;;;;;;4685947;30;20195;-86
2021/09/25 02:34:48;;;;;;;1.67;1.58;;;;;;;;;;4685874;30;20300;-85
2021/09/25 02:37:17;;;;;;;1.90;1.80;;;;;;;;;;4702708;30;20214;-86
2021/09/25 02:39:45;;;;;;;2.00;1.80;;;;;;;;;;4702550;30;20199;-84
2021/09/25 02:42:12;;;;;;;1.98;1.88;;;;;;;;;;4702675;30;20214;-86
2021/09/25 02:44:40;;;;;;;2.15;2.00;;;;;;;;;;4702268;30;20229;-85
2021/09/25 02:47:07;;;;;;;1.60;1.50;;;;;;;;;;4701778;30;20250;-86
2021/09/25 02:49:37;;;;;;;2.83;2.22;;;;;;;;;;4701852;30;20218;-85
2021/09/25 02:52:06;;;;;;;2.60;2.40;;;;;;;;;;4702068;30;20237;-85
2021/09/25 02:54:33;;;;;;;1.70;1.60;;;;;;;;;;4700763;30;20260;-86
2021/09/25 02:57:00;;;;;;;1.88;1.77;;;;;;;;;;4701690;30;20224;-85
2021/09/25 02:59:28;;;;;;;1.98;1.88;;;;;;;;;;4701656;30;20227;-85
2021/09/25 03:01:55;;;;;;;2.00;1.90;;;;;;;;;;4702113;30;20217;-85
2021/09/25 03:04:29;;;;;;;1.90;1.80;;;;;;;;;;4701754;30;20214;-85
2021/09/25 03:06:59;;;;;;;2.30;2.10;;;;;;;;;;4701773;30;20576;-85
2021/09/25 03:09:29;;;;;;;1.75;1.65;;;;;;;;;;4701626;30;20584;-86
2021/09/25 03:11:57;;;;;;;2.20;2.10;;;;;;;;;;4702221;30;20199;-85
2021/09/25 03:14:25;;;;;;;2.00;1.90;;;;;;;;;;4702333;30;20584;-85
2021/09/25 03:16:54;;;;;;;3.15;2.67;;;;;;;;;;4701798;30;20211;-85
2021/09/25 03:19:21;;;;;;;2.20;2.10;;;;;;;;;;4701810;30;20737;-84
2021/09/25 03:21:56;;;;;;;2.25;2.05;;;;;;;;;;4701281;30;20258;-87
2021/09/25 03:24:25;;;;;;;2.38;2.17;;;;;;;;;;4701171;30;20222;-89
2021/09/25 03:27:05;;;;;;;1.95;1.85;;;;;;;;;;4701135;30;20587;-87
2021/09/25 03:30:10;;;;;;;1.73;1.63;;;;;;;;;;4701386;30;20218;-86
2021/09/25 03:32:59;;;;;;;1.92;1.83;;;;;;;;;;4701021;30;20207;-87
2021/09/25 03:35:35;;;;;;;2.35;2.10;;;;;;;;;;4700832;30;20203;-87
2021/09/25 03:38:09;;;;;;;1.95;1.85;;;;;;;;;;4701223;30;20234;-87
2021/09/25 03:40:49;;;;;;;2.58;2.38;;;;;;;;;;4701117;30;20214;-87
2021/09/25 03:43:23;;;;;;;1.95;1.85;;;;;;;;;;4701042;30;20237;-87
2021/09/25 03:45:50;;;;;;;2.05;1.95;;;;;;;;;;4698653;30;20245;-87
2021/09/25 03:48:28;;;;;;;1.98;1.88;;;;;;;;;;4700708;30;20231;-87
2021/09/25 03:50:58;;;;;;;1.63;1.52;;;;;;;;;;4700776;30;20872;-87
2021/09/25 03:53:36;;;;;;;1.85;1.75;;;;;;;;;;4700741;30;20194;-87
2021/09/25 03:56:13;;;;;;;2.80;2.60;;;;;;;;;;4690366;30;20639;-87
2021/09/25 03:58:58;;;;;;;2.13;2.03;;;;;;;;;;4683358;30;20230;-87
2021/09/25 04:01:25;;;;;;;1.98;1.88;;;;;;;;;;4683286;30;20215;-87
2021/09/25 04:04:33;;;;;;;1.88;1.77;;;;;;;;;;4683369;30;20249;-87
2021/09/25 04:07:01;;;;;;;1.60;1.50;;;;;;;;;;4699976;30;20328;-87
2021/09/25 04:09:42;;;;;;;3.08;2.88;;;;;;;;;;4699724;30;20234;-87
2021/09/25 04:12:19;;;;;;;2.13;2.03;;;;;;;;;;4700532;30;20674;-87
2021/09/25 04:14:52;;;;;;;3.17;2.92;;;;;;;;;;4700447;30;20214;-86
2021/09/25 04:17:20;;;;;;;3.53;3.28;;;;;;;;;;4700425;30;20225;-87
2021/09/25 04:20:01;;;;;;;2.70;2.50;;;;;;;;;;4700379;30;20215;-86
2021/09/25 04:22:42;;;;;;;2.40;2.30;;;;;;;;;;4700299;30;20219;-87
2021/09/25 04:25:11;;;;;;;2.25;2.15;;;;;;;;;;4700188;30;20222;-86
2021/09/25 04:27:42;;;;;;;2.42;2.22;;;;;;;;;;4700187;30;20238;-87
2021/09/25 04:30:13;;;;;;;2.15;2.05;;;;;;;;;;4700194;30;20667;-87
2021/09/25 04:32:53;;;;;;;2.58;2.38;;;;;;;;;;4699933;30;20221;-87
2021/09/25 04:35:33;;;;;;;2.92;2.72;;;;;;;;;;4695284;30;20218;-87
2021/09/25 04:38:05;;;;;;;3.17;2.97;;;;;;;;;;4682741;30;20234;-87
2021/09/25 04:40:34;;;;;;;3.50;3.20;;;;;;;;;;4682786;30;20191;-87
2021/09/25 04:43:16;;;;;;;2.90;2.70;;;;;;;;;;4682679;30;20215;-86
2021/09/25 04:45:44;;;;;;;2.80;2.60;;;;;;;;;;4687661;30;21575;-86
2021/09/25 04:48:11;;;;;;;2.60;2.40;;;;;;;;;;4700457;30;20226;-85
2021/09/25 04:50:38;;;;;;;2.72;2.53;;;;;;;;;;4700136;30;20217;-83
2021/09/25 04:53:08;;;;;;;3.50;3.30;;;;;;;;;;4699732;30;20199;-85
2021/09/25 04:55:37;;;;;;;3.17;2.97;;;;;;;;;;4699480;30;20202;-84
2021/09/25 04:58:05;;;;;;;3.42;3.10;;;;;;;;;;4700082;30;20238;-84
2021/09/25 05:00:34;;;;;;;2.90;2.70;;;;;;;;;;4698119;30;20202;-84
2021/09/25 05:03:02;;;;;;;2.70;2.50;;;;;;;;;;4682428;30;20222;-84
2021/09/25 05:05:29;;;;;;;2.63;2.42;;;;;;;;;;4696275;30;20214;-84
2021/09/25 05:07:58;;;;;;;3.03;2.70;;;;;;;;;;4700055;30;20230;-85
2021/09/25 05:10:26;;;;;;;3.10;2.88;;;;;;;;;;4700663;30;20210;-84
2021/09/25 05:12:53;;;;;;;2.78;2.58;;;;;;;;;;4700534;30;20667;-85
2021/09/25 05:15:20;;;;;;;2.10;2.00;;;;;;;;;;4699831;30;20205;-85
2021/09/25 05:17:49;;;;;;;2.53;2.33;;;;;;;;;;4691973;30;20242;-84
2021/09/25 05:20:17;;;;;;;2.60;2.40;;;;;;;;;;4682655;30;20221;-85
2021/09/25 05:22:44;;;;;;;2.78;2.58;;;;;;;;;;4693550;30;20229;-85
2021/09/25 05:25:12;;;;;;;2.58;2.38;;;;;;;;;;4699898;30;20816;-84
2021/09/25 05:27:42;;;;;;;2.60;2.40;;;;;;;;;;4700030;30;20239;-84
2021/09/25 05:30:12;;;;;;;2.67;2.47;;;;;;;;;;4700306;30;20508;-84
2021/09/25 05:32:39;;;;;;;3.00;2.58;;;;;;;;;;4695415;30;20576;-84
2021/09/25 05:35:10;;;;;;;3.20;3.00;;;;;;;;;;4699880;30;20590;-84
2021/09/25 05:37:37;;;;;;;2.70;2.50;;;;;;;;;;4700141;30;20245;-84
2021/09/25 05:40:06;;;;;;;3.10;2.90;;;;;;;;;;4699423;30;20218;-85
2021/09/25 05:42:33;;;;;;;2.70;2.50;;;;;;;;;;4699395;30;20214;-86
2021/09/25 05:45:01;;;;;;;2.30;2.10;;;;;;;;;;4697620;30;20215;-85
2021/09/25 05:47:28;;;;;;;2.40;2.25;;;;;;;;;;4680725;30;21012;-84
2021/09/25 05:49:56;;;;;;;2.17;2.08;;;;;;;;;;4681322;30;20234;-84
2021/09/25 05:52:25;;;;;;;2.25;2.05;;;;;;;;;;4682255;30;20192;-84
2021/09/25 05:54:55;;;;;;;1.67;1.58;;;;;;;;;;4684369;30;20211;-85
2021/09/25 05:57:24;;;;;;;2.42;2.22;;;;;;;;;;4703135;30;20215;-85
2021/09/25 05:59:52;;;;;;;2.00;1.90;;;;;;;;;;4699746;30;20659;-84
2021/09/25 06:02:20;;;;;;;1.92;1.83;;;;;;;;;;4700042;30;20214;-84
2021/09/25 06:04:47;;;;;;;2.00;1.90;;;;;;;;;;4699381;30;20237;-84
2021/09/25 06:07:15;;;;;;;3.70;3.40;;;;;;;;;;4699581;30;20230;-84
2021/09/25 06:09:44;;;;;;;3.55;3.25;;;;;;;;;;4699799;30;20214;-84
2021/09/25 06:12:13;;;;;;;3.65;3.25;;;;;;;;;;4699838;30;20203;-85
2021/09/25 06:14:41;;;;;;;3.20;2.90;;;;;;;;;;4699770;30;20213;-85
2021/09/25 06:17:09;;;;;;;3.03;2.78;;;;;;;;;;4682456;30;20196;-84
2021/09/25 06:19:37;;;;;;;3.05;2.78;;;;;;;;;;4682467;30;20221;-84
2021/09/25 06:22:05;;;;;;;3.00;2.80;;;;;;;;;;4682503;30;20261;-84
2021/09/25 06:24:32;;;;;;;1.80;1.70;;;;;;;;;;4682243;30;20198;-84
2021/09/25 06:27:01;;;;;;;2.70;2.50;;;;;;;;;;4698763;30;20202;-84
2021/09/25 06:29:28;;;;;;;2.72;2.40;;;;;;;;;;4702459;30;20744;-84
2021/09/25 06:31:56;;;;;;;2.45;2.25;;;;;;;;;;4702986;30;20210;-85
2021/09/25 06:34:24;;;;;;;2.35;2.25;;;;;;;;;;4701992;30;20223;-85
2021/09/25 06:36:51;;;;;;;2.05;1.95;;;;;;;;;;4702848;30;20210;-84
2021/09/25 06:39:21;;;;;;;2.00;1.90;;;;;;;;;;4702708;30;20230;-85
2021/09/25 06:41:49;;;;;;;2.95;2.67;;;;;;;;;;4702344;30;20284;-85
2021/09/25 06:44:18;;;;;;;2.65;2.30;;;;;;;;;;4702148;30;20203;-86
2021/09/25 06:46:45;;;;;;;2.90;2.58;;;;;;;;;;4701518;30;20242;-86
2021/09/25 06:49:13;;;;;;;2.30;2.10;;;;;;;;;;4702226;30;20596;-85
2021/09/25 06:51:40;;;;;;;2.28;2.17;;;;;;;;;;4701136;30;20225;-85
2021/09/25 06:54:09;;;;;;;2.00;1.80;;;;;;;;;;4701761;30;20205;-85
2021/09/25 06:56:36;;;;;;;2.72;2.53;;;;;;;;;;4701864;30;20719;-86
2021/09/25 06:59:05;;;;;;;2.22;2.03;;;;;;;;;;4700635;30;20249;-88
2021/09/25 07:01:34;;;;;;;1.70;1.60;;;;;;;;;;4701386;30;20222;-87
2021/09/25 07:04:03;;;;;;;2.30;2.13;;;;;;;;;;4701548;30;20590;-86
2021/09/25 07:06:33;;;;;;;1.90;1.80;;;;;;;;;;4701336;30;20229;-87
2021/09/25 07:09:00;;;;;;;2.50;2.30;;;;;;;;;;4701479;30;20230;-87
2021/09/25 07:11:27;;;;;;;3.38;3.08;;;;;;;;;;4701288;30;20229;-87
2021/09/25 07:13:55;;;;;;;2.60;2.40;;;;;;;;;;4701082;30;20214;-86
2021/09/25 07:16:23;;;;;;;2.30;2.20;;;;;;;;;;4700989;30;20217;-87
2021/09/25 07:18:54;;;;;;;2.80;2.60;;;;;;;;;;4700883;30;20767;-87
2021/09/25 07:21:22;;;;;;;3.10;2.67;;;;;;;;;;4700880;30;20211;-87
2021/09/25 07:23:50;;;;;;;2.90;2.70;;;;;;;;;;4700982;30;20210;-87
2021/09/25 07:26:17;;;;;;;2.88;2.47;;;;;;;;;;4700572;30;20265;-88
2021/09/25 07:28:45;;;;;;;2.35;2.15;;;;;;;;;;4701305;30;20328;-87
2021/09/25 07:31:12;;;;;;;4.30;2.83;;;;;;;;;;4701512;30;20214;-85
2021/09/25 07:33:41;;;;;;;2.15;1.95;;;;;;;;;;4700687;30;20698;-87
2021/09/25 07:36:10;;;;;;;2.83;2.63;;;;;;;;;;4697620;30;20217;-88
2021/09/25 07:38:38;;;;;;;3.70;2.85;;;;;;;;;;4697706;30;20333;-87
2021/09/25 07:41:06;;;;;;;3.03;2.83;;;;;;;;;;4697706;30;20238;-87
2021/09/25 07:43:33;;;;;;;3.47;3.17;;;;;;;;;;4697670;30;20577;-87
2021/09/25 07:46:01;;;;;;;2.78;2.58;;;;;;;;;;4697447;30;20250;-87
2021/09/25 07:48:28;;;;;;;3.33;3.03;;;;;;;;;;4697755;30;20250;-87
2021/09/25 07:50:56;;;;;;;2.50;2.30;;;;;;;;;;4697582;30;20343;-88
2021/09/25 07:53:24;;;;;;;2.90;2.70;;;;;;;;;;4697422;30;20608;-86
2021/09/25 07:55:52;;;;;;;2.33;2.13;;;;;;;;;;4697163;30;20211;-87
2021/09/25 07:58:19;;;;;;;3.05;2.65;;;;;;;;;;4697895;30;20664;-87
2021/09/25 08:00:48;;;;;;;3.00;2.80;;;;;;;;;;4697411;30;20221;-87
2021/09/25 08:03:16;;;;;;;3.03;2.83;;;;;;;;;;4697435;30;20228;-86
2021/09/25 08:05:43;;;;;;;3.28;2.97;;;;;;;;;;4697037;30;20727;-87
2021/09/25 08:08:11;;;;;;;2.60;2.40;;;;;;;;;;4697278;30;20245;-87
2021/09/25 08:10:40;;;;;;;2.95;2.75;;;;;;;;;;4697173;30;20692;-88
2021/09/25 08:13:07;;;;;;;2.60;2.40;;;;;;;;;;4697400;30;20225;-88
2021/09/25 08:15:34;;;;;;;2.67;2.47;;;;;;;;;;4697187;30;20218;-88
2021/09/25 08:18:02;;;;;;;2.67;2.47;;;;;;;;;;4697019;30;20246;-86
2021/09/25 08:20:29;;;;;;;2.70;2.50;;;;;;;;;;4697158;30;20221;-87
2021/09/25 08:22:57;;;;;;;3.30;3.00;;;;;;;;;;4696664;30;20222;-87
2021/09/25 08:25:24;;;;;;;4.60;3.70;;;;;;;;;;4697252;30;20222;-88
2021/09/25 08:27:53;;;;;;;3.17;2.97;;;;;;;;;;4696762;30;20245;-87
2021/09/25 08:30:24;;;;;;;3.10;2.90;;;;;;;;;;4697121;30;20223;-87
2021/09/25 08:32:52;;;;;;;3.47;3.17;;;;;;;;;;4696867;30;20228;-87
2021/09/25 08:35:21;;;;;;;3.00;2.70;;;;;;;;;;4696617;30;20218;-87
2021/09/25 08:37:49;;;;;;;4.18;2.65;;;;;;;;;;4696916;30;20238;-87
2021/09/25 08:40:19;;;;;;;3.63;3.25;;;;;;;;;;4696740;30;20214;-88
2021/09/25 08:42:47;;;;;;;3.42;3.00;;;;;;;;;;4696809;30;20214;-87
2021/09/25 08:45:16;;;;;;;3.03;2.72;;;;;;;;;;4692787;30;20640;-87
2021/09/25 08:47:44;;;;;;;3.60;3.30;;;;;;;;;;4679021;30;20250;-88
2021/09/25 08:50:14;;;;;;;3.58;3.28;;;;;;;;;;4679330;30;20210;-87
2021/09/25 08:52:43;;;;;;;3.53;3.22;;;;;;;;;;4679366;30;20237;-88
2021/09/25 08:55:12;;;;;;;3.33;3.13;;;;;;;;;;4682764;30;20229;-87
2021/09/25 08:57:40;;;;;;;3.42;2.85;;;;;;;;;;4696873;30;20247;-88
2021/09/25 09:00:35;;;;;;;4.20;3.90;;;;;;;;;;4696425;30;20315;-87
2021/09/25 09:03:36;;;;;;;4.43;3.92;;;;;;;;;;4696361;30;20214;-87
2021/09/25 09:06:14;;;;;;;4.18;3.78;;;;;;;;;;4693413;30;20598;-88
2021/09/25 09:08:43;;;;;;;3.28;3.03;;;;;;;;;;4696480;30;20234;-88
2021/09/25 09:11:12;;;;;;;4.32;3.95;;;;;;;;;;4696403;30;20218;-88
2021/09/25 09:13:42;;;;;;;4.13;3.72;;;;;;;;;;4696183;30;20211;-87
2021/09/25 09:16:12;;;;;;;3.90;3.60;;;;;;;;;;4696224;30;20229;-88
2021/09/25 09:18:43;;;;;;;4.45;3.67;;;;;;;;;;4696238;30;20254;-88
2021/09/25 09:21:13;;;;;;;3.72;3.40;;;;;;;;;;4696124;30;20219;-87
2021/09/25 09:23:44;;;;;;;3.35;3.15;;;;;;;;;;4696315;30;20257;-88
2021/09/25 09:26:15;;;;;;;3.85;3.58;;;;;;;;;;4696258;30;20264;-87
2021/09/25 09:28:44;;;;;;;3.60;3.30;;;;;;;;;;4695689;30;20245;-87
2021/09/25 09:31:16;;;;;;;4.40;4.10;;;;;;;;;;4696364;30;20214;-88
2021/09/25 09:33:47;;;;;;;4.25;3.85;;;;;;;;;;4695859;30;20214;-88
2021/09/25 09:36:21;;;;;;;3.50;2.97;;;;;;;;;;4695942;30;20723;-87
2021/09/25 09:38:53;;;;;;;3.58;3.30;;;;;;;;;;4696071;30;20241;-88
2021/09/25 09:41:25;;;;;;;4.20;3.90;;;;;;;;;;4696163;30;20603;-88
2021/09/25 09:43:54;;;;;;;3.70;3.40;;;;;;;;;;4696031;30;20702;-87
2021/09/25 09:46:40;;;;;;;3.72;3.38;;;;;;;;;;4695591;30;20242;-88
2021/09/25 09:49:13;;;;;;;4.07;3.78;;;;;;;;;;4695956;30;20753;-87
2021/09/25 09:51:47;;;;;;;4.03;3.72;;;;;;;;;;4696008;30;20218;-87
2021/09/25 09:54:22;;;;;;;3.78;3.47;;;;;;;;;;4695926;30;20226;-87
2021/09/25 09:56:52;;;;;;;3.90;3.60;;;;;;;;;;4695507;30;20217;-87
2021/09/25 09:59:19;;;;;;;4.22;3.83;;;;;;;;;;4695885;30;20242;-87
2021/09/25 10:01:48;;;;;;;4.80;4.40;;;;;;;;;;4695860;30;20225;-88
2021/09/25 10:04:17;;;;;;;4.55;4.20;;;;;;;;;;4698702;30;20214;-87
2021/09/25 10:06:45;;;;;;;5.13;4.38;;;;;;;;;;4699250;30;21005;-87
2021/09/25 10:09:14;;;;;;;4.47;4.07;;;;;;;;;;4699093;30;20235;-87
2021/09/25 10:11:44;;;;;;;4.50;4.10;;;;;;;;;;4699389;30;20218;-88
2021/09/25 10:14:18;;;;;;;3.67;3.38;;;;;;;;;;4699082;30;20729;-87
2021/09/25 10:16:47;;;;;;;4.95;4.53;;;;;;;;;;4698854;30;20218;-88
2021/09/25 10:19:19;;;;;;;3.70;3.40;;;;;;;;;;4698854;30;20249;-87
2021/09/25 10:21:49;;;;;;;3.90;3.60;;;;;;;;;;4698825;30;20225;-88
2021/09/25 10:24:22;;;;;;;3.55;3.25;;;;;;;;;;4699034;30;20218;-87
2021/09/25 10:26:49;;;;;;;4.57;4.18;;;;;;;;;;4683541;30;20225;-88
2021/09/25 10:29:20;;;;;;;3.90;3.60;;;;;;;;;;4681419;30;20258;-87
2021/09/25 10:31:50;;;;;;;3.50;3.25;;;;;;;;;;4681549;30;20207;-87
2021/09/25 10:34:20;;;;;;;3.28;2.97;;;;;;;;;;4681321;30;20576;-87
2021/09/25 10:36:52;;;;;;;3.70;3.17;;;;;;;;;;4696417;30;20224;-88
2021/09/25 10:39:36;;;;;;;2.63;2.42;;;;;;;;;;4698747;30;20622;-88
2021/09/25 10:42:10;;;;;;;3.25;3.05;;;;;;;;;;4698598;30;20214;-88
2021/09/25 10:44:48;;;;;;;3.60;3.30;;;;;;;;;;4698279;30;20253;-88
2021/09/25 10:47:20;;;;;;;3.70;3.38;;;;;;;;;;4681150;30;20274;-88
2021/09/25 10:49:56;;;;;;;4.05;3.75;;;;;;;;;;4681108;30;20215;-89
2021/09/25 10:52:41;;;;;;;4.55;4.15;;;;;;;;;;4681372;30;20225;-88
2021/09/25 10:55:22;;;;;;;4.20;3.80;;;;;;;;;;4684470;30;20207;-89
2021/09/25 10:58:38;;;;;;;2.92;2.72;;;;;;;;;;4698291;30;20238;-88
2021/09/25 11:01:08;;;;;;;3.20;2.90;;;;;;;;;;4627513;31;20308;-88
2021/09/25 11:04:08;;;;;;;3.78;3.35;;;;;;;;;;4627525;31;20737;-87
2021/09/25 11:06:52;;;;;;;4.30;3.92;;;;;;;;;;4674882;30;20218;-88
2021/09/25 11:09:31;;;;;;;3.15;2.85;;;;;;;;;;4698039;30;20685;-88
2021/09/25 11:12:06;;;;;;;3.53;2.58;;;;;;;;;;4698290;30;20241;-87
2021/09/25 11:14:40;;;;;;;3.10;2.90;;;;;;;;;;4697339;30;20208;-87
2021/09/25 11:17:11;;;;;;;3.05;2.83;;;;;;;;;;4698073;30;20245;-88
2021/09/25 11:19:44;;;;;;;2.83;2.63;;;;;;;;;;4698366;30;20219;-88
2021/09/25 11:22:22;;;;;;;2.97;2.78;;;;;;;;;;4698338;30;20694;-88
2021/09/25 11:24:52;;;;;;;2.38;2.20;;;;;;;;;;4683891;30;20225;-89
2021/09/25 11:27:22;;;;;;;2.42;2.22;;;;;;;;;;4697775;30;20215;-86
2021/09/25 11:30:04;;;;;;;1.90;1.80;;;;;;;;;;4698674;30;20203;-88
2021/09/25 11:32:33;;;;;;;1.98;1.88;;;;;;;;;;4699262;30;20707;-89
2021/09/25 11:35:08;;;;;;;1.70;1.60;;;;;;;;;;4697053;30;20218;-89
2021/09/25 11:37:35;;;;;;;2.38;1.77;;;;;;;;;;4682563;30;20777;-88
2021/09/25 11:40:04;;;;;;;2.15;2.05;;;;;;;;;;4682983;30;20255;-89
2021/09/25 11:42:34;;;;;;;2.05;1.95;;;;;;;;;;4683460;30;20207;-88
2021/09/25 11:45:12;;;;;;;2.40;2.20;;;;;;;;;;4683143;30;20274;-89
2021/09/25 11:47:43;;;;;;;2.05;1.95;;;;;;;;;;4683093;30;20650;-89
2021/09/25 11:50:19;;;;;;;1.67;1.52;;;;;;;;;;4683510;30;20297;-88
2021/09/25 11:52:51;;;;;;;1.90;1.80;;;;;;;;;;4683202;30;20230;-89
2021/09/25 11:55:21;;;;;;;2.42;2.22;;;;;;;;;;4687668;30;20199;-89
2021/09/25 11:57:52;;;;;;;2.22;2.13;;;;;;;;;;4699714;30;20235;-87
2021/09/25 12:00:32;;;;;;;2.00;1.90;;;;;;;;;;4692980;30;20211;-88
2021/09/25 12:03:01;;;;;;;1.75;1.65;;;;;;;;;;4699248;30;20198;-87
2021/09/25 12:05:37;;;;;;;1.92;1.83;;;;;;;;;;4699990;30;20681;-88
2021/09/25 12:08:09;;;;;;;2.28;2.08;;;;;;;;;;4700363;30;20448;-88
2021/09/25 12:10:39;;;;;;;1.92;1.83;;;;;;;;;;4692528;30;20306;-88
2021/09/25 12:13:11;;;;;;;1.60;1.50;;;;;;;;;;4686151;30;20652;-88
2021/09/25 12:15:45;;;;;;;2.05;1.95;;;;;;;;;;4687401;30;20216;-88
2021/09/25 12:18:20;;;;;;;1.83;1.73;;;;;;;;;;4682674;30;20716;-87
2021/09/25 12:20:53;;;;;;;1.85;1.75;;;;;;;;;;4700021;30;20202;-88
2021/09/25 12:23:25;;;;;;;1.58;1.48;;;;;;;;;;4683052;30;20729;-88
2021/09/25 12:25:54;;;;;;;1.83;1.70;;;;;;;;;;4682468;30;20206;-86
2021/09/25 12:28:29;;;;;;;1.73;1.60;;;;;;;;;;4681478;30;20235;-87
2021/09/25 12:30:59;;;;;;;2.22;2.13;;;;;;;;;;4683027;30;20191;-86
2021/09/25 12:33:27;;;;;;;1.70;1.60;;;;;;;;;;4682959;30;20195;-87
2021/09/25 12:36:04;;;;;;;2.92;1.55;;;;;;;;;;4682347;30;20214;-88
2021/09/25 12:38:34;;;;;;;1.90;1.80;;;;;;;;;;4682521;30;20715;-87
2021/09/25 12:41:05;;;;;;;2.08;1.75;;;;;;;;;;4686221;30;20723;-87
2021/09/25 12:43:40;;;;;;;1.50;1.40;;;;;;;;;;4699713;30;20207;-86
2021/09/25 12:46:14;;;;;;;1.80;1.70;;;;;;;;;;4687851;30;20301;-87
2021/09/25 12:49:13;;;;;;;1.48;1.40;;;;;;;;;;4695015;30;20233;-87
2021/09/25 12:51:48;;;;;;;1.50;1.40;;;;;;;;;;4682437;30;20222;-87
2021/09/25 12:54:18;;;;;;;1.38;1.27;;;;;;;;;;4697967;30;20880;-88
2021/09/25 12:56:49;;;;;;;0.93;0.93;;;;;;;;;;4697475;30;20214;-87
2021/09/25 12:59:23;;;;;;;0.95;0.95;;;;;;;;;;4689598;30;20281;-88
2021/09/25 13:01:53;;;;;;;1.58;1.48;;;;;;;;;;4699214;30;20253;-87
2021/09/25 13:04:28;;;;;;;1.60;1.50;;;;;;;;;;4699811;30;20213;-87
2021/09/25 13:06:59;;;;;;;1.20;1.10;;;;;;;;;;4699822;30;20202;-87
2021/09/25 13:09:28;;;;;;;1.33;1.30;;;;;;;;;;4693761;30;20231;-87
2021/09/25 13:12:14;;;;;;;1.80;1.58;;;;;;;;;;4694545;30;20678;-87
2021/09/25 13:14:42;;;;;;;2.03;1.55;;;;;;;;;;4695336;30;20303;-87
2021/09/25 13:17:11;;;;;;;1.80;1.70;;;;;;;;;;4682283;30;20200;-86
2021/09/25 13:19:41;;;;;;;1.75;1.65;;;;;;;;;;4692837;30;20195;-87
2021/09/25 13:22:11;;;;;;;1.65;1.42;;;;;;;;;;4699550;30;20237;-86
2021/09/25 13:24:40;;;;;;;1.27;1.27;;;;;;;;;;4695378;30;20199;-87
2021/09/25 13:27:11;;;;;;;1.13;1.13;;;;;;;;;;4689700;30;20204;-87
2021/09/25 13:29:38;;;;;;;1.10;1.10;;;;;;;;;;4681841;30;20727;-87
2021/09/25 13:32:06;;;;;;;1.63;1.27;;;;;;;;;;4691667;30;20230;-87
2021/09/25 13:34:35;;;;;;;1.40;1.27;;;;;;;;;;4693635;30;20217;-88
2021/09/25 13:37:03;;;;;;;1.15;1.13;;;;;;;;;;4682301;30;20204;-88
2021/09/25 13:39:31;;;;;;;1.30;1.20;;;;;;;;;;4686563;30;20598;-87
2021/09/25 13:42:05;;;;;;;1.50;1.40;;;;;;;;;;4693649;30;20294;-89
2021/09/25 13:44:34;;;;;;;1.85;1.30;;;;;;;;;;4702582;30;20229;-88
2021/09/25 13:47:03;;;;;;;1.60;1.50;;;;;;;;;;4702267;30;20238;-87
2021/09/25 13:49:30;;;;;;;1.63;1.52;;;;;;;;;;4694165;30;20242;-87
2021/09/25 13:51:59;;;;;;;0.90;0.90;;;;;;;;;;4686309;30;20568;-88
2021/09/25 13:54:27;;;;;;;0.90;0.90;;;;;;;;;;4686320;30;20203;-88
2021/09/25 13:56:56;;;;;;;1.27;1.17;;;;;;;;;;4685502;30;20203;-88
2021/09/25 13:59:24;;;;;;;1.10;1.10;;;;;;;;;;4698107;30;20231;-88
2021/09/25 14:01:53;;;;;;;1.23;1.20;;;;;;;;;;4686404;30;20204;-87
2021/09/25 14:04:21;;;;;;;1.90;1.50;;;;;;;;;;4690036;30;20210;-88
2021/09/25 14:06:49;;;;;;;1.30;1.30;;;;;;;;;;4702561;30;20202;-87
2021/09/25 14:09:45;;;;;;;0.90;0.90;;;;;;;;;;4696843;30;20231;-89
2021/09/25 14:12:14;;;;;;;1.48;1.38;;;;;;;;;;4702367;30;20195;-88
2021/09/25 14:14:41;;;;;;;4.10;1.17;;;;;;;;;;4702139;30;20218;-88
2021/09/25 14:17:10;;;;;;;1.23;1.23;;;;;;;;;;4702230;30;20294;-89
2021/09/25 14:19:38;;;;;;;1.13;1.13;;;;;;;;;;4691564;30;20217;-89
2021/09/25 14:22:06;;;;;;;0.95;0.95;;;;;;;;;;4700414;30;20210;-88
2021/09/25 14:24:33;;;;;;;1.00;1.00;;;;;;;;;;4701858;30;20194;-88
2021/09/25 14:27:02;;;;;;;1.35;1.27;;;;;;;;;;4701900;30;20223;-87
2021/09/25 14:29:31;;;;;;;0.93;0.93;;;;;;;;;;4699793;30;20245;-87
2021/09/25 14:32:00;;;;;;;1.02;1.02;;;;;;;;;;4698964;30;20647;-88
2021/09/25 14:34:30;;;;;;;1.20;1.10;;;;;;;;;;4701954;30;20281;-87
2021/09/25 14:36:59;;;;;;;0.95;0.95;;;;;;;;;;4700126;30;20214;-87
2021/09/25 14:39:27;;;;;;;1.27;1.17;;;;;;;;;;4701716;30;20241;-86
2021/09/25 14:41:59;;;;;;;1.02;1.02;;;;;;;;;;4701912;30;20199;-87
2021/09/25 14:44:28;;;;;;;1.10;1.10;;;;;;;;;;4701717;30;20225;-88
2021/09/25 14:46:57;;;;;;;1.25;1.15;;;;;;;;;;4701116;30;20730;-88
2021/09/25 14:49:24;;;;;;;1.20;1.10;;;;;;;;;;4701046;30;20223;-88
2021/09/25 14:51:51;;;;;;;0.90;0.90;;;;;;;;;;4701429;30;20218;-88
2021/09/25 14:54:19;;;;;;;0.85;0.85;;;;;;;;;;4701050;30;20210;-89
2021/09/25 14:56:48;;;;;;;1.67;1.58;;;;;;;;;;4701185;30;20215;-88
2021/09/25 14:59:15;;;;;;;1.33;1.23;;;;;;;;;;4701072;30;20659;-87
2021/09/25 15:01:43;;;;;;;1.00;1.00;;;;;;;;;;4701162;30;20214;-88
2021/09/25 15:04:13;;;;;;;0.98;0.98;;;;;;;;;;4701164;30;20254;-88